Time;durP1;ratioP1;P1;durP2;ratioP2;P2;SDS_P1;SDS_P2;PMS_P1;PMS_P2;Temp;Humidity;BMP_temperature;BMP_pressure;BME280_temperature;BME280_humidity;BME280_pressure;Samples;Min_cycle;Max_cycle;Signal;HPM_P1;HPM_P2
2022/11/20 00:01:27;;;;;;;18.75;4.50;;;;;;;8.78;100.00;100181.28;5065576;28;20048;-83
2022/11/20 00:03:56;;;;;;;20.15;4.65;;;;;;;8.58;100.00;100189.06;5069674;28;20087;-83
2022/11/20 00:06:23;;;;;;;19.95;4.35;;;;;;;8.52;100.00;100185.78;5082572;28;20048;-82
2022/11/20 00:08:53;;;;;;;21.17;4.28;;;;;;;8.49;100.00;100179.81;5086139;28;20090;-83
2022/11/20 00:11:22;;;;;;;20.85;3.50;;;;;;;8.58;100.00;100187.28;5067798;28;20064;-82
2022/11/20 00:13:52;;;;;;;20.13;3.85;;;;;;;8.67;100.00;100160.84;5089983;28;20048;-83
2022/11/20 00:16:22;;;;;;;23.20;3.38;;;;;;;8.83;100.00;100166.31;5071431;28;20048;-83
2022/11/20 00:18:49;;;;;;;16.98;3.90;;;;;;;8.66;100.00;100171.38;5101104;28;20048;-83
2022/11/20 00:21:19;;;;;;;19.45;3.53;;;;;;;8.53;100.00;100166.63;5067305;28;20781;-83
2022/11/20 00:23:51;;;;;;;22.85;3.75;;;;;;;8.80;100.00;100171.66;5068534;28;20406;-83
2022/11/20 00:26:22;;;;;;;21.67;3.30;;;;;;;8.51;100.00;100165.78;5067133;28;20051;-82
2022/11/20 00:28:52;;;;;;;14.32;3.22;;;;;;;8.52;100.00;100166.66;5088707;28;20040;-82
2022/11/20 00:31:19;;;;;;;14.73;4.00;;;;;;;8.70;100.00;100150.28;5068831;28;20582;-83
2022/11/20 00:33:46;;;;;;;16.35;3.38;;;;;;;8.73;100.00;100155.41;5065475;28;20089;-82
2022/11/20 00:36:16;;;;;;;30.13;5.72;;;;;;;8.66;100.00;100146.09;5081628;28;20143;-83
2022/11/20 00:38:44;;;;;;;13.95;3.40;;;;;;;8.55;100.00;100143.03;5082039;28;20527;-81
2022/11/20 00:41:14;;;;;;;11.60;3.00;;;;;;;8.66;100.00;100153.94;5073249;28;20049;-82
2022/11/20 00:43:41;;;;;;;24.10;3.67;;;;;;;8.42;100.00;100107.88;5065643;28;20049;-83
2022/11/20 00:46:19;;;;;;;20.73;5.35;;;;;;;8.61;100.00;100142.81;5077870;28;20090;-82
2022/11/20 00:48:46;;;;;;;18.52;4.18;;;;;;;8.75;100.00;100118.78;5085817;28;20051;-82
2022/11/20 00:51:16;;;;;;;18.15;3.63;;;;;;;8.68;100.00;100146.06;5081287;28;20047;-82
2022/11/20 00:53:43;;;;;;;17.38;3.28;;;;;;;8.81;100.00;100139.41;5065504;28;20048;-82
2022/11/20 00:56:14;;;;;;;17.15;4.00;;;;;;;8.70;100.00;100112.91;5084936;28;20117;-82
2022/11/20 00:58:43;;;;;;;20.90;4.60;;;;;;;8.95;100.00;100125.81;5081804;28;20048;-82
2022/11/20 01:01:23;;;;;;;16.50;3.33;;;;;;;9.04;100.00;100125.44;5090313;28;20044;-82
2022/11/20 01:03:53;;;;;;;18.55;4.72;;;;;;;8.78;100.00;100131.69;5095630;28;20044;-82
2022/11/20 01:06:46;;;;;;;12.43;3.25;;;;;;;8.82;100.00;100112.41;5088604;28;20098;-81
2022/11/20 01:09:14;;;;;;;16.55;4.20;;;;;;;8.83;100.00;100054.06;5066360;28;20052;-81
2022/11/20 01:11:43;;;;;;;17.02;4.05;;;;;;;8.72;100.00;100067.53;5093440;28;20616;-81
2022/11/20 01:14:13;;;;;;;19.48;3.97;;;;;;;8.90;100.00;100075.53;5067179;28;20459;-81
2022/11/20 01:16:43;;;;;;;21.13;6.05;;;;;;;8.76;100.00;100054.38;5069937;28;20044;-82
2022/11/20 01:19:16;;;;;;;21.65;4.28;;;;;;;8.87;100.00;100086.09;5092177;28;20055;-82
2022/11/20 01:21:45;;;;;;;23.50;3.83;;;;;;;8.88;100.00;100065.16;5080246;28;20062;-82
2022/11/20 01:24:15;;;;;;;20.50;3.78;;;;;;;8.89;100.00;100071.25;5086726;28;20106;-82
2022/11/20 01:26:43;;;;;;;16.77;3.63;;;;;;;8.71;100.00;100076.31;5074394;28;20065;-81
2022/11/20 01:29:16;;;;;;;20.27;3.58;;;;;;;8.91;100.00;100059.81;5074788;28;20040;-82
2022/11/20 01:31:43;;;;;;;19.10;3.78;;;;;;;8.90;100.00;100054.66;5082409;28;20063;-82
2022/11/20 01:34:13;;;;;;;15.63;4.35;;;;;;;8.99;100.00;100056.03;5092358;28;20109;-82
2022/11/20 01:36:41;;;;;;;14.80;3.65;;;;;;;9.19;100.00;100053.44;5108390;28;20055;-82
2022/11/20 01:39:15;;;;;;;16.08;4.32;;;;;;;9.12;100.00;100034.56;5075557;28;20397;-82
2022/11/20 01:44:54;;;;;;;19.75;4.15;;;;;;;9.07;100.00;100036.53;5093114;28;20089;-81
2022/11/20 01:47:32;;;;;;;10.93;3.45;;;;;;;8.89;100.00;100050.38;5092440;28;20052;-82
2022/11/20 01:50:05;;;;;;;13.55;3.13;;;;;;;9.02;100.00;100035.88;5060182;28;20472;-82
2022/11/20 01:52:40;;;;;;;18.97;4.73;;;;;;;8.63;100.00;100004.47;5074460;28;20040;-82
2022/11/20 01:55:14;;;;;;;25.83;4.65;;;;;;;8.99;100.00;100030.78;5087905;28;20055;-82
2022/11/20 01:57:44;;;;;;;15.63;4.53;;;;;;;8.95;100.00;99978.75;5090600;28;20553;-82
2022/11/20 02:00:13;;;;;;;24.23;4.68;;;;;;;8.84;100.00;100008.78;5078952;28;20048;-83
2022/11/20 02:02:50;;;;;;;15.95;4.72;;;;;;;8.88;100.00;100026.00;5092380;28;20097;-83
2022/11/20 02:05:26;;;;;;;25.83;4.93;;;;;;;8.90;100.00;99974.56;5092323;28;20048;-83
2022/11/20 02:07:55;;;;;;;21.15;5.05;;;;;;;9.08;100.00;100012.13;5075404;28;20079;-83
2022/11/20 02:10:22;;;;;;;21.85;4.28;;;;;;;8.99;100.00;100011.66;5074736;28;20546;-82
2022/11/20 02:15:34;;;;;;;16.20;3.75;;;;;;;9.21;100.00;99999.38;5091430;28;20048;-82
2022/11/20 02:18:01;;;;;;;22.00;4.40;;;;;;;9.32;100.00;100006.72;5092214;28;20481;-82
2022/11/20 02:20:28;;;;;;;22.25;3.85;;;;;;;9.19;100.00;100003.81;5092705;28;20382;-82
2022/11/20 02:23:30;;;;;;;22.52;4.40;;;;;;;9.09;100.00;99999.91;5079007;28;20044;-83
2022/11/20 02:25:58;;;;;;;21.42;4.35;;;;;;;9.16;100.00;99998.72;5054667;28;20562;-82
2022/11/20 02:28:25;;;;;;;15.15;3.90;;;;;;;8.98;100.00;100004.72;5084518;28;20044;-82
2022/11/20 02:30:51;;;;;;;18.38;4.80;;;;;;;8.99;100.00;99990.75;5069947;28;20056;-82
2022/11/20 02:33:18;;;;;;;13.13;2.97;;;;;;;9.04;100.00;99989.66;5066239;28;20097;-82
2022/11/20 02:35:46;;;;;;;19.23;4.40;;;;;;;9.04;100.00;99986.19;5107426;28;20048;-82
2022/11/20 02:38:14;;;;;;;17.17;3.55;;;;;;;9.07;100.00;99973.00;5092496;28;20060;-83
2022/11/20 02:40:41;;;;;;;16.90;3.15;;;;;;;9.17;100.00;99982.16;5074463;28;20527;-83
2022/11/20 02:43:09;;;;;;;17.08;3.40;;;;;;;9.18;100.00;99991.66;5092222;28;20044;-82
2022/11/20 02:45:36;;;;;;;15.13;3.90;;;;;;;9.17;100.00;99974.31;5091693;28;20108;-82
2022/11/20 02:48:02;;;;;;;19.30;3.88;;;;;;;8.91;100.00;99950.16;5092725;28;20055;-82
2022/11/20 02:50:29;;;;;;;16.80;4.00;;;;;;;9.02;100.00;99967.97;5074656;28;20055;-83
2022/11/20 02:52:56;;;;;;;21.42;4.20;;;;;;;8.98;100.00;99953.38;5092069;28;20048;-82
2022/11/20 02:55:22;;;;;;;19.73;5.18;;;;;;;9.08;100.00;99957.28;5092089;28;20113;-82
2022/11/20 02:57:49;;;;;;;13.75;3.92;;;;;;;9.02;100.00;99967.13;5088455;28;20047;-83
2022/11/20 03:00:16;;;;;;;19.45;3.40;;;;;;;9.20;100.00;99941.97;5073811;28;20089;-82
2022/11/20 03:02:43;;;;;;;17.50;3.85;;;;;;;9.11;100.00;99945.84;5066045;28;20125;-82
2022/11/20 03:05:09;;;;;;;16.05;4.30;;;;;;;8.83;100.00;99901.81;5091072;28;20044;-83
2022/11/20 03:07:36;;;;;;;19.58;4.43;;;;;;;8.99;100.00;99933.31;5099441;28;20044;-82
2022/11/20 03:10:04;;;;;;;19.70;4.57;;;;;;;9.12;100.00;99937.09;5074144;28;20101;-83
2022/11/20 03:12:31;;;;;;;21.65;4.80;;;;;;;8.90;100.00;99893.63;5091630;28;20105;-83
2022/11/20 03:14:57;;;;;;;22.80;4.63;;;;;;;9.19;100.00;99937.66;5066941;28;20074;-83
2022/11/20 03:17:24;;;;;;;17.48;4.55;;;;;;;8.85;100.00;99902.59;5077348;28;20059;-83
2022/11/20 03:19:51;;;;;;;26.40;5.32;;;;;;;8.94;100.00;99920.44;5073868;28;20052;-83
2022/11/20 03:22:17;;;;;;;19.02;4.70;;;;;;;8.89;100.00;99906.78;5091937;28;20662;-84
2022/11/20 03:24:44;;;;;;;15.90;4.32;;;;;;;8.69;100.00;99905.00;5091915;28;20460;-83
2022/11/20 03:27:11;;;;;;;24.40;5.82;;;;;;;9.09;100.00;99898.06;5072869;28;20048;-83
2022/11/20 03:29:38;;;;;;;14.00;3.80;;;;;;;9.07;100.00;99910.34;5067222;28;20093;-83
2022/11/20 03:32:05;;;;;;;19.30;4.00;;;;;;;8.97;100.00;99916.88;5078802;28;20048;-83
2022/11/20 03:34:32;;;;;;;20.98;4.20;;;;;;;9.01;100.00;99876.66;5090989;28;20048;-83
2022/11/20 03:36:59;;;;;;;19.17;5.10;;;;;;;9.12;100.00;99890.94;5073428;28;20113;-83
2022/11/20 03:39:26;;;;;;;16.50;3.78;;;;;;;9.19;100.00;99882.81;5092149;28;20040;-83
2022/11/20 03:41:53;;;;;;;17.73;4.80;;;;;;;9.21;100.00;99876.59;5073519;28;20431;-83
2022/11/20 03:44:21;;;;;;;25.35;4.72;;;;;;;9.21;100.00;99884.44;5076952;28;20052;-82
2022/11/20 03:46:47;;;;;;;16.80;3.75;;;;;;;9.20;100.00;99855.78;5077555;28;20077;-83
2022/11/20 03:49:14;;;;;;;12.23;3.45;;;;;;;8.78;100.00;99875.91;5077527;28;20052;-83
2022/11/20 03:51:41;;;;;;;11.52;2.78;;;;;;;8.55;100.00;99863.84;5095503;28;20044;-83
2022/11/20 03:54:08;;;;;;;9.48;2.00;;;;;;;8.67;100.00;99878.97;5077141;28;20093;-83
2022/11/20 03:56:39;;;;;;;11.68;2.80;;;;;;;8.81;100.00;99861.88;5094935;28;20052;-83
2022/11/20 03:59:06;;;;;;;11.73;2.63;;;;;;;8.87;100.00;99872.91;5077817;28;20097;-83
2022/11/20 04:01:35;;;;;;;11.85;2.75;;;;;;;8.77;100.00;99889.03;5107457;28;20044;-83
2022/11/20 04:04:02;;;;;;;11.60;2.58;;;;;;;8.62;100.00;99869.66;5095132;28;20052;-83
2022/11/20 04:06:33;;;;;;;13.23;2.50;;;;;;;8.26;100.00;99886.78;5077155;28;20101;-84
2022/11/20 04:09:00;;;;;;;10.52;2.50;;;;;;;7.89;100.00;99872.63;5111602;28;20048;-83
2022/11/20 04:11:29;;;;;;;10.27;2.13;;;;;;;8.04;100.00;99834.69;5094880;28;20051;-84
2022/11/20 04:14:01;;;;;;;7.13;2.03;;;;;;;8.54;100.00;99870.84;5095117;28;20055;-84
2022/11/20 04:16:34;;;;;;;8.88;2.47;;;;;;;8.48;100.00;99875.47;5094040;28;20075;-84
2022/11/20 04:19:02;;;;;;;15.40;3.05;;;;;;;8.10;100.00;99824.00;5076772;28;20492;-84
2022/11/20 04:21:29;;;;;;;15.57;3.42;;;;;;;8.23;100.00;99883.44;5077572;28;20531;-84
2022/11/20 04:23:56;;;;;;;13.55;2.35;;;;;;;8.22;100.00;99866.97;5077249;28;20105;-83
2022/11/20 04:26:25;;;;;;;18.63;4.07;;;;;;;8.04;100.00;99875.53;5098342;28;20121;-83
2022/11/20 04:28:52;;;;;;;11.40;2.95;;;;;;;7.85;100.00;99858.03;5095096;28;20059;-83
2022/11/20 04:31:21;;;;;;;14.35;2.50;;;;;;;8.09;100.00;99870.97;5093342;28;20097;-83
2022/11/20 04:33:48;;;;;;;9.48;3.00;;;;;;;7.64;100.00;99828.47;5076544;28;20052;-83
2022/11/20 04:36:21;;;;;;;17.20;3.28;;;;;;;8.06;100.00;99866.75;5094387;28;20100;-83
2022/11/20 04:38:59;;;;;;;9.57;2.47;;;;;;;7.86;100.00;99878.00;5077481;28;20412;-83
2022/11/20 04:41:28;;;;;;;11.50;2.70;;;;;;;7.89;100.00;99872.63;5094857;28;20451;-83
2022/11/20 04:43:59;;;;;;;8.40;1.95;;;;;;;7.75;100.00;99870.56;5076397;28;20101;-82
2022/11/20 04:46:27;;;;;;;12.88;3.53;;;;;;;7.75;100.00;99841.06;5094060;28;20113;-82
2022/11/20 04:48:54;;;;;;;13.07;2.67;;;;;;;7.50;100.00;99856.84;5076689;28;20052;-83
2022/11/20 04:51:21;;;;;;;9.90;2.40;;;;;;;7.50;100.00;99836.00;5077021;28;20679;-83
2022/11/20 04:53:48;;;;;;;9.93;2.60;;;;;;;7.56;100.00;99817.50;5075847;28;20387;-83
2022/11/20 04:56:15;;;;;;;13.00;2.67;;;;;;;7.85;100.00;99852.00;5078727;28;20051;-82
2022/11/20 04:58:42;;;;;;;10.65;2.35;;;;;;;7.89;100.00;99837.91;5082193;28;20389;-83
2022/11/20 05:01:15;;;;;;;12.20;2.10;;;;;;;8.02;100.00;99841.72;5094330;28;20140;-82
2022/11/20 05:03:43;;;;;;;17.70;2.38;;;;;;;8.05;100.00;99851.16;5094131;28;20044;-84
2022/11/20 05:06:12;;;;;;;11.75;2.85;;;;;;;7.88;100.00;99825.78;5093498;28;20044;-83
2022/11/20 05:08:39;;;;;;;8.05;2.47;;;;;;;7.94;100.00;99855.06;5076157;28;20117;-83
2022/11/20 05:11:18;;;;;;;9.73;2.13;;;;;;;7.86;100.00;99831.09;5076470;28;20048;-83
2022/11/20 05:13:45;;;;;;;14.07;3.03;;;;;;;7.68;100.00;99813.56;5076343;28;20474;-83
2022/11/20 05:16:14;;;;;;;13.30;2.33;;;;;;;7.87;100.00;99845.78;5093475;28;20047;-84
2022/11/20 05:18:42;;;;;;;10.57;3.38;;;;;;;7.84;100.00;99821.63;5094245;28;20058;-84
2022/11/20 05:21:10;;;;;;;9.57;2.15;;;;;;;7.94;100.00;99826.38;5094125;28;20052;-84
2022/11/20 05:23:38;;;;;;;9.93;2.67;;;;;;;8.00;100.00;99838.31;5093994;28;20052;-84
2022/11/20 05:26:07;;;;;;;11.38;2.55;;;;;;;8.13;100.00;99830.84;5092892;28;20116;-83
2022/11/20 05:28:34;;;;;;;7.80;2.08;;;;;;;7.97;100.00;99833.25;5093312;28;20047;-83
2022/11/20 05:31:21;;;;;;;7.53;1.85;;;;;;;7.84;100.00;99819.00;5075891;28;20052;-83
2022/11/20 05:33:54;;;;;;;7.27;2.23;;;;;;;7.74;100.00;99818.56;5083217;28;20555;-83
2022/11/20 05:36:21;;;;;;;7.35;1.70;;;;;;;8.02;100.00;99822.59;5075154;28;20094;-83
2022/11/20 05:38:48;;;;;;;9.45;2.47;;;;;;;7.73;100.00;99820.28;5093467;28;20105;-84
2022/11/20 05:41:19;;;;;;;10.70;2.80;;;;;;;7.46;100.00;99798.81;5108493;28;20055;-83
2022/11/20 05:43:47;;;;;;;9.75;2.50;;;;;;;7.47;100.00;99794.44;5092596;28;20050;-83
2022/11/20 05:46:16;;;;;;;9.30;2.53;;;;;;;7.74;100.00;99797.69;5070696;28;20102;-83
2022/11/20 05:48:46;;;;;;;11.20;2.65;;;;;;;7.81;100.00;99793.94;5066504;28;20044;-83
2022/11/20 05:51:17;;;;;;;9.35;2.65;;;;;;;7.80;100.00;99811.31;5075166;28;20052;-82
2022/11/20 05:53:44;;;;;;;10.52;2.92;;;;;;;7.94;100.00;99802.94;5092222;28;20043;-82
2022/11/20 05:56:19;;;;;;;14.38;2.80;;;;;;;7.87;100.00;99811.06;5095794;28;20476;-83
2022/11/20 05:58:47;;;;;;;6.55;2.20;;;;;;;7.64;100.00;99784.19;5092040;28;20052;-84
2022/11/20 06:01:19;;;;;;;11.82;2.45;;;;;;;7.82;100.00;99808.63;5073149;28;20044;-84
2022/11/20 06:03:47;;;;;;;9.80;2.40;;;;;;;7.63;100.00;99794.66;5086678;28;20128;-84
2022/11/20 06:06:15;;;;;;;12.70;2.28;;;;;;;7.68;100.00;99784.91;5078734;28;20040;-84
2022/11/20 06:08:42;;;;;;;9.60;2.63;;;;;;;7.62;100.00;99796.44;5065665;28;20055;-84
2022/11/20 06:11:12;;;;;;;10.18;2.13;;;;;;;7.60;100.00;99782.63;5083256;28;20048;-84
2022/11/20 06:13:39;;;;;;;12.73;2.85;;;;;;;7.42;100.00;99766.00;5064185;28;20058;-83
2022/11/20 06:16:08;;;;;;;10.88;2.58;;;;;;;7.74;100.00;99792.50;5088683;28;20063;-84
2022/11/20 06:18:35;;;;;;;16.20;3.17;;;;;;;7.70;100.00;99767.44;5065812;28;20059;-83
2022/11/20 06:21:07;;;;;;;13.05;2.30;;;;;;;7.67;100.00;99781.47;5068227;28;20121;-83
2022/11/20 06:23:35;;;;;;;7.85;2.15;;;;;;;7.62;100.00;99785.19;5064519;28;20062;-83
2022/11/20 06:26:04;;;;;;;10.15;2.15;;;;;;;7.55;100.00;99748.94;5066194;28;20508;-83
2022/11/20 06:28:31;;;;;;;6.47;2.15;;;;;;;7.63;100.00;99785.09;5066130;28;20067;-84
2022/11/20 06:30:58;;;;;;;10.10;2.30;;;;;;;7.60;100.00;99764.38;5070438;28;20117;-83
2022/11/20 06:33:25;;;;;;;8.43;2.45;;;;;;;7.41;100.00;99772.09;5085735;28;20539;-83
2022/11/20 06:35:51;;;;;;;11.35;2.42;;;;;;;7.54;100.00;99781.13;5085528;28;20056;-83
2022/11/20 06:38:26;;;;;;;10.70;2.78;;;;;;;7.59;100.00;99758.31;5089251;28;20105;-83
2022/11/20 06:40:53;;;;;;;12.60;2.83;;;;;;;7.45;100.00;99770.22;5074541;28;20506;-82
2022/11/20 06:43:20;;;;;;;10.93;3.13;;;;;;;7.80;100.00;99768.78;5091132;28;20500;-85
2022/11/20 06:45:53;;;;;;;11.02;3.00;;;;;;;7.64;100.00;99752.94;5073456;28;20436;-83
2022/11/20 06:48:20;;;;;;;9.75;2.65;;;;;;;7.66;100.00;99769.34;5073818;28;20052;-84
2022/11/20 06:50:47;;;;;;;12.38;3.78;;;;;;;7.64;100.00;99768.56;5092594;28;20825;-83
2022/11/20 06:53:13;;;;;;;12.20;2.70;;;;;;;7.57;100.00;99767.13;5074183;28;20048;-84
2022/11/20 06:55:47;;;;;;;10.20;2.30;;;;;;;7.74;100.00;99769.03;5073781;28;20493;-83
2022/11/20 06:58:15;;;;;;;14.50;2.90;;;;;;;7.43;100.00;99762.47;5092087;28;20055;-83
2022/11/20 07:00:42;;;;;;;9.48;2.83;;;;;;;7.58;100.00;99766.22;5091930;28;20055;-83
2022/11/20 07:03:11;;;;;;;12.38;2.33;;;;;;;7.52;100.00;99758.63;5091591;28;20043;-83
2022/11/20 07:05:38;;;;;;;12.05;3.15;;;;;;;7.66;100.00;99774.53;5073517;28;20040;-83
2022/11/20 07:08:05;;;;;;;7.05;2.03;;;;;;;7.40;100.00;99765.16;5074317;28;20047;-83
2022/11/20 07:10:32;;;;;;;8.90;2.22;;;;;;;7.40;100.00;99779.06;5085596;28;20101;-83
2022/11/20 07:12:59;;;;;;;12.07;3.05;;;;;;;7.41;100.00;99775.53;5068037;28;20397;-83
2022/11/20 07:15:26;;;;;;;12.38;2.60;;;;;;;7.40;100.00;99768.66;5082630;28;20433;-82
2022/11/20 07:17:53;;;;;;;14.73;3.30;;;;;;;7.65;100.00;99758.97;5071305;28;20102;-82
2022/11/20 07:20:20;;;;;;;12.55;2.85;;;;;;;7.56;100.00;99745.44;5061880;28;20443;-83
2022/11/20 07:22:46;;;;;;;9.93;2.17;;;;;;;7.74;100.00;99769.88;5081363;28;20453;-83
2022/11/20 07:25:13;;;;;;;8.32;2.50;;;;;;;7.68;100.00;99764.06;5067962;28;20044;-83
2022/11/20 07:27:40;;;;;;;10.38;3.00;;;;;;;7.55;100.00;99755.91;5089544;28;20056;-83
2022/11/20 07:30:07;;;;;;;9.20;2.60;;;;;;;7.42;100.00;99742.53;5079663;28;20064;-83
2022/11/20 07:32:34;;;;;;;12.88;2.38;;;;;;;7.46;100.00;99738.91;5067294;28;20044;-83
2022/11/20 07:35:01;;;;;;;16.33;4.93;;;;;;;7.50;100.00;99757.84;5100998;28;20097;-82
2022/11/20 07:37:27;;;;;;;8.23;2.95;;;;;;;7.35;100.00;99741.94;5085069;28;20052;-82
2022/11/20 07:39:54;;;;;;;8.48;2.50;;;;;;;7.11;100.00;99722.91;5097813;28;20048;-83
2022/11/20 07:42:21;;;;;;;9.63;2.00;;;;;;;7.36;100.00;99767.06;5086155;28;20052;-83
2022/11/20 07:44:47;;;;;;;8.38;2.00;;;;;;;7.32;100.00;99757.69;5082438;28;20487;-84
2022/11/20 07:47:14;;;;;;;8.73;2.25;;;;;;;7.29;100.00;99729.16;5069405;28;20048;-84
2022/11/20 07:49:41;;;;;;;6.13;2.00;;;;;;;7.02;100.00;99729.34;5062609;28;20052;-84
2022/11/20 07:52:08;;;;;;;10.40;2.53;;;;;;;7.12;100.00;99749.78;5068331;28;20056;-84
2022/11/20 07:54:34;;;;;;;9.15;2.60;;;;;;;7.22;100.00;99719.88;5072635;28;20097;-83
2022/11/20 07:57:01;;;;;;;8.63;2.38;;;;;;;6.90;100.00;99675.16;5071768;28;20044;-84
2022/11/20 07:59:28;;;;;;;8.23;2.13;;;;;;;7.23;100.00;99742.44;5090939;28;20052;-84
2022/11/20 08:01:55;;;;;;;9.10;2.67;;;;;;;7.28;100.00;99727.47;5087694;28;20051;-84
2022/11/20 08:04:23;;;;;;;12.70;2.85;;;;;;;7.39;100.00;99734.84;5066512;28;20763;-84
2022/11/20 08:06:52;;;;;;;11.43;2.30;;;;;;;7.20;100.00;99719.94;5065820;28;20641;-84
2022/11/20 08:09:18;;;;;;;7.43;2.03;;;;;;;7.02;100.00;99700.69;5090157;28;20044;-84
2022/11/20 08:14:31;;;;;;;13.57;4.57;;;;;;;6.98;100.00;99674.88;5077801;28;20603;-83
2022/11/20 08:16:57;;;;;;;11.05;2.53;;;;;;;7.32;100.00;99697.78;5071866;28;20048;-84
2022/11/20 08:19:24;;;;;;;7.72;2.58;;;;;;;7.26;100.00;99698.06;5073923;28;20060;-84
2022/11/20 08:21:51;;;;;;;13.60;2.70;;;;;;;7.18;100.00;99684.47;5070219;28;20799;-83
2022/11/20 08:24:17;;;;;;;11.85;2.38;;;;;;;7.47;100.00;99732.78;5071023;28;20098;-83
2022/11/20 08:26:44;;;;;;;10.82;2.85;;;;;;;7.53;100.00;99719.50;5075113;28;20044;-83
2022/11/20 08:29:11;;;;;;;8.07;2.20;;;;;;;7.38;100.00;99713.19;5068903;28;20098;-82
2022/11/20 08:31:37;;;;;;;7.25;2.25;;;;;;;7.30;100.00;99724.81;5093716;28;20051;-83
2022/11/20 08:34:04;;;;;;;9.80;2.40;;;;;;;7.21;100.00;99711.25;5067441;28;20056;-83
2022/11/20 08:36:36;;;;;;;6.47;1.80;;;;;;;7.46;100.00;99745.88;5084016;28;20047;-83
2022/11/20 08:39:03;;;;;;;10.98;2.45;;;;;;;7.25;100.00;99732.78;5076239;28;20692;-86
2022/11/20 08:41:32;;;;;;;6.45;1.85;;;;;;;7.29;100.00;99723.94;5084566;28;20093;-85
2022/11/20 08:44:01;;;;;;;5.35;1.70;;;;;;;7.37;100.00;99734.91;5093811;28;20044;-85
2022/11/20 08:46:33;;;;;;;4.18;1.45;;;;;;;7.38;100.00;99735.75;5093420;28;20048;-85
2022/11/20 08:49:00;;;;;;;17.63;2.60;;;;;;;7.44;100.00;99726.84;5073079;28;20099;-84
2022/11/20 08:51:27;;;;;;;7.57;2.50;;;;;;;7.47;100.00;99713.69;5072508;28;20462;-84
2022/11/20 08:53:53;;;;;;;6.97;2.10;;;;;;;7.45;100.00;99728.53;5075461;28;20048;-85
2022/11/20 08:56:20;;;;;;;11.10;1.88;;;;;;;7.38;100.00;99721.00;5085860;28;20044;-83
2022/11/20 08:58:47;;;;;;;11.65;2.05;;;;;;;7.39;100.00;99714.00;5094403;28;20105;-84
2022/11/20 09:01:34;;;;;;;8.80;2.17;;;;;;;7.68;100.00;99725.81;5087016;28;20101;-84
2022/11/20 09:04:01;;;;;;;8.55;2.05;;;;;;;7.63;100.00;99716.50;5091490;28;20477;-84
2022/11/20 09:06:28;;;;;;;11.10;1.90;;;;;;;7.39;100.00;99693.19;5075164;28;20375;-84
2022/11/20 09:08:54;;;;;;;8.60;1.73;;;;;;;7.60;100.00;99712.28;5066477;28;20056;-84
2022/11/20 09:11:21;;;;;;;9.43;1.90;;;;;;;7.51;100.00;99713.50;5066784;28;20082;-84
2022/11/20 09:13:49;;;;;;;8.95;1.80;;;;;;;7.70;100.00;99728.38;5092318;28;20051;-83
2022/11/20 09:16:16;;;;;;;7.60;2.30;;;;;;;7.64;100.00;99695.59;5073769;28;20452;-84
2022/11/20 09:18:42;;;;;;;7.88;2.08;;;;;;;7.19;100.00;99696.59;5086748;28;20055;-83
2022/11/20 09:21:11;;;;;;;7.45;1.42;;;;;;;7.64;100.00;99697.38;5075111;28;20075;-84
2022/11/20 09:23:38;;;;;;;11.00;1.90;;;;;;;7.66;100.00;99701.59;5065971;28;20494;-83
2022/11/20 09:26:09;;;;;;;16.48;3.75;;;;;;;7.51;100.00;99702.25;5075345;28;20477;-82
2022/11/20 09:28:37;;;;;;;8.25;1.88;;;;;;;7.41;100.00;99658.34;5075247;28;20065;-83
2022/11/20 09:31:08;;;;;;;10.48;2.10;;;;;;;7.27;100.00;99652.88;5063710;28;20048;-84
2022/11/20 09:33:35;;;;;;;10.43;1.90;;;;;;;7.43;100.00;99686.09;5075581;28;20074;-83
2022/11/20 09:36:02;;;;;;;8.13;2.15;;;;;;;7.64;100.00;99681.75;5090845;28;20044;-84
2022/11/20 09:38:29;;;;;;;12.52;2.65;;;;;;;7.39;100.00;99641.94;5084184;28;20048;-84
2022/11/20 09:41:02;;;;;;;11.32;3.15;;;;;;;7.95;100.00;99691.69;5092573;28;20055;-83
2022/11/20 09:43:52;;;;;;;10.57;2.00;;;;;;;7.94;100.00;99671.75;5069553;28;20513;-83
2022/11/20 09:46:37;;;;;;;8.63;1.77;;;;;;;8.16;100.00;99698.59;5068057;28;20097;-83
2022/11/20 09:49:13;;;;;;;9.05;2.05;;;;;;;8.07;100.00;99664.25;5088500;28;20052;-84
2022/11/20 09:52:06;;;;;;;9.70;3.03;;;;;;;8.15;100.00;99654.31;5082372;28;20048;-84
2022/11/20 09:54:38;;;;;;;8.10;2.05;;;;;;;8.17;100.00;99682.00;5068227;28;20043;-83
2022/11/20 09:57:16;;;;;;;6.15;1.50;;;;;;;8.17;100.00;99676.78;5088385;28;20158;-84
2022/11/20 09:59:49;;;;;;;8.32;1.65;;;;;;;7.97;100.00;99677.69;5072846;28;20052;-84
2022/11/20 10:02:41;;;;;;;7.38;2.30;;;;;;;8.29;100.00;99680.63;5068844;28;20048;-84
2022/11/20 10:05:40;;;;;;;7.25;1.80;;;;;;;8.14;100.00;99679.56;5092009;28;20040;-84
2022/11/20 10:08:08;;;;;;;13.80;2.70;;;;;;;8.10;100.00;99677.97;5087188;28;20101;-84
2022/11/20 10:10:43;;;;;;;8.95;1.90;;;;;;;7.97;100.00;99651.63;5073037;28;20458;-84
2022/11/20 10:13:24;;;;;;;7.93;1.98;;;;;;;7.94;100.00;99645.69;5066374;28;20477;-84
2022/11/20 10:16:01;;;;;;;7.22;2.00;;;;;;;7.92;100.00;99671.81;5077231;28;20093;-84
2022/11/20 10:18:58;;;;;;;16.17;3.05;;;;;;;7.96;100.00;99672.53;5064651;28;20044;-85
2022/11/20 10:21:28;;;;;;;12.15;3.35;;;;;;;7.99;100.00;99677.63;5085260;28;20048;-84
2022/11/20 10:24:21;;;;;;;14.80;2.80;;;;;;;8.06;100.00;99673.00;5084485;28;20058;-84
2022/11/20 10:26:57;;;;;;;10.00;2.58;;;;;;;8.16;100.00;99669.03;5071293;28;20040;-84
2022/11/20 10:29:46;;;;;;;7.53;1.83;;;;;;;8.19;100.00;99650.66;5085257;28;20097;-84
2022/11/20 10:32:31;;;;;;;12.88;2.20;;;;;;;8.17;100.00;99653.31;5092390;28;20047;-84
2022/11/20 10:35:04;;;;;;;10.57;2.58;;;;;;;7.94;100.00;99649.13;5088967;28;20044;-83
2022/11/20 10:37:34;;;;;;;9.52;1.95;;;;;;;8.09;100.00;99652.84;5077448;28;20190;-83
2022/11/20 10:40:24;;;;;;;15.07;2.85;;;;;;;8.16;100.00;99642.97;5072351;28;20196;-84
2022/11/20 10:42:56;;;;;;;8.48;2.17;;;;;;;8.06;100.00;99621.69;5092173;28;20191;-83
2022/11/20 10:45:25;;;;;;;9.23;2.35;;;;;;;8.35;100.00;99649.03;5072768;28;20067;-83
2022/11/20 10:48:15;;;;;;;10.10;2.15;;;;;;;8.52;100.00;99643.09;5091688;28;20048;-84
2022/11/20 10:51:08;;;;;;;7.80;1.95;;;;;;;8.41;100.00;99642.72;5070601;28;20044;-84
2022/11/20 10:53:50;;;;;;;7.38;1.90;;;;;;;8.51;100.00;99643.16;5047649;28;20055;-84
2022/11/20 10:56:27;;;;;;;4.00;1.70;;;;;;;8.47;100.00;99634.63;5068487;28;20473;-84
2022/11/20 10:59:14;;;;;;;8.05;1.92;;;;;;;8.64;100.00;99633.84;5070486;28;20860;-84
2022/11/20 11:01:42;;;;;;;9.25;2.10;;;;;;;8.64;100.00;99620.81;5089921;28;20732;-84
2022/11/20 11:04:42;;;;;;;8.32;2.38;;;;;;;8.81;100.00;99634.81;5079991;28;20045;-85
2022/11/20 11:07:15;;;;;;;7.90;2.03;;;;;;;8.80;100.00;99635.72;5078183;28;20040;-83
2022/11/20 11:09:47;;;;;;;6.85;1.83;;;;;;;8.87;100.00;99635.34;5064413;28;20501;-83
2022/11/20 11:12:14;;;;;;;9.60;2.38;;;;;;;8.81;100.00;99630.41;5062426;28;20048;-84
2022/11/20 11:14:51;;;;;;;6.90;2.30;;;;;;;8.67;100.00;99627.63;5091253;28;20417;-85
2022/11/20 11:17:34;;;;;;;7.53;2.08;;;;;;;8.70;100.00;99617.06;5068301;28;20048;-84
2022/11/20 11:20:02;;;;;;;7.40;2.45;;;;;;;8.84;100.00;99624.22;5069229;28;20048;-84
2022/11/20 11:22:32;;;;;;;8.80;2.40;;;;;;;8.90;100.00;99623.91;5078314;28;20552;-84
2022/11/20 11:24:59;;;;;;;6.03;2.20;;;;;;;9.11;100.00;99633.31;5089917;28;20097;-84
2022/11/20 11:27:26;;;;;;;9.23;3.00;;;;;;;8.87;100.00;99624.06;5067622;28;20443;-84
2022/11/20 11:30:04;;;;;;;9.90;2.60;;;;;;;8.87;100.00;99613.59;5091184;28;20052;-84
2022/11/20 11:32:30;;;;;;;7.68;2.38;;;;;;;8.92;100.00;99622.94;5061401;28;20057;-84
2022/11/20 11:35:11;;;;;;;8.77;3.25;;;;;;;8.79;100.00;99619.22;5091552;28;20415;-85
2022/11/20 11:37:39;;;;;;;9.10;2.80;;;;;;;8.84;100.00;99617.22;5063222;28;20082;-85
2022/11/20 11:40:10;;;;;;;9.88;3.95;;;;;;;8.85;100.00;99629.38;5091516;28;20459;-85
2022/11/20 11:42:58;;;;;;;12.68;2.70;;;;;;;8.80;100.00;99613.09;5082421;28;20055;-85
2022/11/20 11:45:26;;;;;;;8.83;2.40;;;;;;;8.91;100.00;99629.06;5072301;28;20789;-84
2022/11/20 11:47:55;;;;;;;7.32;2.30;;;;;;;8.99;100.00;99633.06;5073377;28;20450;-84
2022/11/20 11:50:24;;;;;;;6.47;2.03;;;;;;;8.84;100.00;99598.13;5066168;28;20467;-84